Huntsville, Arkansas
Current Conditions -  °F | °C
As of 8:48 PM on Friday 31 Oct 2014 (Local Time) from KASG Reporting Station
Clear Clear  
Wind Chill: 33°   Ceiling: Unl
Heat Index: 37°   Visibility: 10mi
Dew Point: 21°   Wind: 6mph
Humidity: 52%   Direction: 350°N
Pressure: 30.41"   Gusts: NA
Location:  36.09°N, 93.74°W
Report Text: KASG 010148Z 35005KT 10SM SKC 03/M06 A3041
Loading
Personal Weather Stations






























Interactive Weather Map
Tropical Storm Tracking
New forecast layout! Learn more

10-Day Weather Forecast

Advertisements
Track Severe Weather on mobile